sensor_id;sensor_type;location;lat;lon;timestamp;P1;durP1;ratioP1;P2;durP2;ratioP2
35877;SDS011;21982;49.804;24.072;2023-09-19T00:01:38;28.58;;;16.17;;
35877;SDS011;21982;49.804;24.072;2023-09-19T00:04:04;34.38;;;15.82;;
35877;SDS011;21982;49.804;24.072;2023-09-19T00:06:34;26.02;;;15.02;;
35877;SDS011;21982;49.804;24.072;2023-09-19T00:09:00;27.45;;;17.73;;
35877;SDS011;21982;49.804;24.072;2023-09-19T00:11:25;27.10;;;15.18;;
35877;SDS011;21982;49.804;24.072;2023-09-19T00:13:52;28.33;;;16.58;;
35877;SDS011;21982;49.804;24.072;2023-09-19T00:16:17;28.73;;;14.75;;
35877;SDS011;21982;49.804;24.072;2023-09-19T00:18:44;23.77;;;15.82;;
35877;SDS011;21982;49.804;24.072;2023-09-19T00:21:09;29.60;;;16.58;;
35877;SDS011;21982;49.804;24.072;2023-09-19T00:23:35;26.90;;;17.75;;
35877;SDS011;21982;49.804;24.072;2023-09-19T00:26:00;28.20;;;16.67;;
35877;SDS011;21982;49.804;24.072;2023-09-19T00:28:28;27.70;;;15.00;;
35877;SDS011;21982;49.804;24.072;2023-09-19T00:30:54;27.50;;;15.68;;
35877;SDS011;21982;49.804;24.072;2023-09-19T00:33:20;26.73;;;14.45;;
35877;SDS011;21982;49.804;24.072;2023-09-19T00:35:49;31.42;;;17.10;;
35877;SDS011;21982;49.804;24.072;2023-09-19T00:38:19;27.15;;;15.98;;
35877;SDS011;21982;49.804;24.072;2023-09-19T00:40:52;28.88;;;15.07;;
35877;SDS011;21982;49.804;24.072;2023-09-19T00:43:18;27.42;;;14.73;;
35877;SDS011;21982;49.804;24.072;2023-09-19T00:45:44;27.23;;;14.65;;
35877;SDS011;21982;49.804;24.072;2023-09-19T00:48:13;25.55;;;14.45;;
35877;SDS011;21982;49.804;24.072;2023-09-19T00:50:39;29.30;;;14.60;;
35877;SDS011;21982;49.804;24.072;2023-09-19T00:53:07;29.05;;;14.82;;
35877;SDS011;21982;49.804;24.072;2023-09-19T00:55:34;24.65;;;14.77;;
35877;SDS011;21982;49.804;24.072;2023-09-19T00:58:02;26.08;;;13.63;;
35877;SDS011;21982;49.804;24.072;2023-09-19T01:00:28;23.25;;;12.82;;
35877;SDS011;21982;49.804;24.072;2023-09-19T01:02:54;24.30;;;13.50;;
35877;SDS011;21982;49.804;24.072;2023-09-19T01:05:19;32.25;;;14.80;;
35877;SDS011;21982;49.804;24.072;2023-09-19T01:07:45;26.95;;;14.25;;
35877;SDS011;21982;49.804;24.072;2023-09-19T01:10:14;28.05;;;13.82;;
35877;SDS011;21982;49.804;24.072;2023-09-19T01:24:31;27.15;;;14.05;;
35877;SDS011;21982;49.804;24.072;2023-09-19T01:30:11;30.65;;;13.48;;
35877;SDS011;21982;49.804;24.072;2023-09-19T01:32:39;21.67;;;14.05;;
35877;SDS011;21982;49.804;24.072;2023-09-19T01:35:06;25.42;;;13.80;;
35877;SDS011;21982;49.804;24.072;2023-09-19T01:37:36;18.85;;;13.02;;
35877;SDS011;21982;49.804;24.072;2023-09-19T01:40:06;23.08;;;12.57;;
35877;SDS011;21982;49.804;24.072;2023-09-19T01:47:56;24.85;;;13.20;;
35877;SDS011;21982;49.804;24.072;2023-09-19T01:50:38;22.67;;;12.52;;
35877;SDS011;21982;49.804;24.072;2023-09-19T01:55:53;27.70;;;12.45;;
35877;SDS011;21982;49.804;24.072;2023-09-19T02:01:04;24.35;;;12.20;;
35877;SDS011;21982;49.804;24.072;2023-09-19T02:03:31;22.42;;;12.13;;
35877;SDS011;21982;49.804;24.072;2023-09-19T02:05:58;24.88;;;13.10;;
35877;SDS011;21982;49.804;24.072;2023-09-19T02:08:24;24.33;;;13.82;;
35877;SDS011;21982;49.804;24.072;2023-09-19T02:10:49;20.83;;;11.27;;
35877;SDS011;21982;49.804;24.072;2023-09-19T02:13:16;22.70;;;12.40;;
35877;SDS011;21982;49.804;24.072;2023-09-19T02:15:42;23.90;;;12.45;;
35877;SDS011;21982;49.804;24.072;2023-09-19T02:18:09;22.10;;;12.45;;
35877;SDS011;21982;49.804;24.072;2023-09-19T02:20:36;18.83;;;11.82;;
35877;SDS011;21982;49.804;24.072;2023-09-19T02:23:02;20.20;;;11.82;;
35877;SDS011;21982;49.804;24.072;2023-09-19T02:25:28;24.58;;;11.43;;
35877;SDS011;21982;49.804;24.072;2023-09-19T02:27:54;19.27;;;10.77;;
35877;SDS011;21982;49.804;24.072;2023-09-19T02:30:23;21.58;;;11.00;;
35877;SDS011;21982;49.804;24.072;2023-09-19T02:32:50;21.20;;;10.27;;
35877;SDS011;21982;49.804;24.072;2023-09-19T02:35:15;20.80;;;11.63;;
35877;SDS011;21982;49.804;24.072;2023-09-19T02:37:41;20.80;;;10.95;;
35877;SDS011;21982;49.804;24.072;2023-09-19T02:40:07;17.02;;;10.05;;
35877;SDS011;21982;49.804;24.072;2023-09-19T02:42:43;24.42;;;11.15;;
35877;SDS011;21982;49.804;24.072;2023-09-19T02:45:14;22.15;;;11.30;;
35877;SDS011;21982;49.804;24.072;2023-09-19T02:47:41;19.25;;;10.60;;
35877;SDS011;21982;49.804;24.072;2023-09-19T02:50:07;19.17;;;10.07;;
35877;SDS011;21982;49.804;24.072;2023-09-19T02:52:34;23.73;;;11.65;;
35877;SDS011;21982;49.804;24.072;2023-09-19T02:55:00;24.50;;;11.05;;
35877;SDS011;21982;49.804;24.072;2023-09-19T02:57:26;20.10;;;9.95;;
35877;SDS011;21982;49.804;24.072;2023-09-19T02:59:52;19.92;;;11.18;;
35877;SDS011;21982;49.804;24.072;2023-09-19T03:02:18;20.25;;;10.80;;
35877;SDS011;21982;49.804;24.072;2023-09-19T03:04:43;17.77;;;10.05;;
35877;SDS011;21982;49.804;24.072;2023-09-19T03:07:10;19.58;;;10.30;;
35877;SDS011;21982;49.804;24.072;2023-09-19T03:09:36;22.27;;;11.55;;
35877;SDS011;21982;49.804;24.072;2023-09-19T03:12:02;18.30;;;9.57;;
35877;SDS011;21982;49.804;24.072;2023-09-19T03:14:29;22.30;;;11.10;;
35877;SDS011;21982;49.804;24.072;2023-09-19T03:17:00;23.40;;;12.05;;
35877;SDS011;21982;49.804;24.072;2023-09-19T03:19:26;26.08;;;10.85;;
35877;SDS011;21982;49.804;24.072;2023-09-19T03:21:52;20.75;;;9.52;;
35877;SDS011;21982;49.804;24.072;2023-09-19T03:24:18;20.40;;;10.52;;
35877;SDS011;21982;49.804;24.072;2023-09-19T03:26:44;22.73;;;10.98;;
35877;SDS011;21982;49.804;24.072;2023-09-19T03:29:10;20.08;;;9.95;;
35877;SDS011;21982;49.804;24.072;2023-09-19T03:31:36;17.88;;;9.88;;
35877;SDS011;21982;49.804;24.072;2023-09-19T03:34:02;20.13;;;10.07;;
35877;SDS011;21982;49.804;24.072;2023-09-19T03:36:29;30.10;;;11.23;;
35877;SDS011;21982;49.804;24.072;2023-09-19T03:38:55;17.45;;;10.70;;
35877;SDS011;21982;49.804;24.072;2023-09-19T03:41:20;17.40;;;9.90;;
35877;SDS011;21982;49.804;24.072;2023-09-19T03:43:46;17.70;;;10.02;;
35877;SDS011;21982;49.804;24.072;2023-09-19T03:46:11;18.17;;;10.68;;
35877;SDS011;21982;49.804;24.072;2023-09-19T03:48:40;20.25;;;10.00;;
35877;SDS011;21982;49.804;24.072;2023-09-19T03:51:05;20.10;;;11.40;;
35877;SDS011;21982;49.804;24.072;2023-09-19T03:53:30;17.35;;;11.02;;
35877;SDS011;21982;49.804;24.072;2023-09-19T03:55:56;16.25;;;10.10;;
35877;SDS011;21982;49.804;24.072;2023-09-19T03:58:22;18.33;;;9.63;;
35877;SDS011;21982;49.804;24.072;2023-09-19T04:00:47;18.58;;;10.90;;
35877;SDS011;21982;49.804;24.072;2023-09-19T04:03:14;19.95;;;10.00;;
35877;SDS011;21982;49.804;24.072;2023-09-19T04:05:46;19.20;;;10.38;;
35877;SDS011;21982;49.804;24.072;2023-09-19T04:08:14;18.70;;;9.32;;
35877;SDS011;21982;49.804;24.072;2023-09-19T04:10:42;18.83;;;10.20;;
35877;SDS011;21982;49.804;24.072;2023-09-19T04:13:11;18.95;;;11.32;;
35877;SDS011;21982;49.804;24.072;2023-09-19T04:15:36;19.50;;;10.52;;
35877;SDS011;21982;49.804;24.072;2023-09-19T04:18:02;15.18;;;9.43;;
35877;SDS011;21982;49.804;24.072;2023-09-19T04:20:28;16.23;;;9.45;;
35877;SDS011;21982;49.804;24.072;2023-09-19T04:22:54;21.13;;;9.70;;
35877;SDS011;21982;49.804;24.072;2023-09-19T04:25:19;17.85;;;9.68;;
35877;SDS011;21982;49.804;24.072;2023-09-19T04:27:45;15.98;;;8.68;;
35877;SDS011;21982;49.804;24.072;2023-09-19T04:30:11;17.48;;;9.50;;
35877;SDS011;21982;49.804;24.072;2023-09-19T04:32:40;18.52;;;9.57;;
35877;SDS011;21982;49.804;24.072;2023-09-19T04:35:09;19.65;;;10.32;;
35877;SDS011;21982;49.804;24.072;2023-09-19T04:37:36;19.73;;;9.00;;
35877;SDS011;21982;49.804;24.072;2023-09-19T04:40:04;19.60;;;9.85;;
35877;SDS011;21982;49.804;24.072;2023-09-19T04:42:31;18.48;;;10.43;;
35877;SDS011;21982;49.804;24.072;2023-09-19T04:44:56;20.10;;;9.38;;
35877;SDS011;21982;49.804;24.072;2023-09-19T04:47:22;19.13;;;9.48;;
35877;SDS011;21982;49.804;24.072;2023-09-19T04:49:47;17.25;;;8.88;;
35877;SDS011;21982;49.804;24.072;2023-09-19T04:52:13;18.70;;;8.93;;
35877;SDS011;21982;49.804;24.072;2023-09-19T04:54:40;17.08;;;9.98;;
35877;SDS011;21982;49.804;24.072;2023-09-19T04:57:09;16.25;;;8.48;;
35877;SDS011;21982;49.804;24.072;2023-09-19T04:59:34;19.23;;;9.88;;
35877;SDS011;21982;49.804;24.072;2023-09-19T05:02:01;22.15;;;9.80;;
35877;SDS011;21982;49.804;24.072;2023-09-19T05:04:26;17.95;;;8.52;;
35877;SDS011;21982;49.804;24.072;2023-09-19T05:06:52;17.42;;;8.80;;
35877;SDS011;21982;49.804;24.072;2023-09-19T05:09:18;18.50;;;9.50;;
35877;SDS011;21982;49.804;24.072;2023-09-19T05:11:45;15.63;;;8.43;;
35877;SDS011;21982;49.804;24.072;2023-09-19T05:14:11;20.15;;;8.82;;
35877;SDS011;21982;49.804;24.072;2023-09-19T05:16:37;22.67;;;9.55;;
35877;SDS011;21982;49.804;24.072;2023-09-19T05:19:02;15.18;;;9.68;;
35877;SDS011;21982;49.804;24.072;2023-09-19T05:21:27;17.88;;;9.27;;
35877;SDS011;21982;49.804;24.072;2023-09-19T05:23:56;17.35;;;7.70;;
35877;SDS011;21982;49.804;24.072;2023-09-19T05:26:21;15.77;;;8.88;;
35877;SDS011;21982;49.804;24.072;2023-09-19T05:28:47;19.48;;;9.55;;
35877;SDS011;21982;49.804;24.072;2023-09-19T05:31:15;16.40;;;7.38;;
35877;SDS011;21982;49.804;24.072;2023-09-19T05:33:41;16.02;;;8.07;;
35877;SDS011;21982;49.804;24.072;2023-09-19T05:36:07;19.85;;;8.07;;
35877;SDS011;21982;49.804;24.072;2023-09-19T05:38:35;16.30;;;9.65;;
35877;SDS011;21982;49.804;24.072;2023-09-19T05:41:02;14.35;;;7.78;;
35877;SDS011;21982;49.804;24.072;2023-09-19T05:43:27;18.48;;;9.50;;
35877;SDS011;21982;49.804;24.072;2023-09-19T05:45:52;19.80;;;8.40;;
35877;SDS011;21982;49.804;24.072;2023-09-19T05:48:18;14.88;;;7.55;;
35877;SDS011;21982;49.804;24.072;2023-09-19T05:50:43;16.80;;;8.43;;
35877;SDS011;21982;49.804;24.072;2023-09-19T05:53:11;20.15;;;8.43;;
35877;SDS011;21982;49.804;24.072;2023-09-19T05:55:39;18.40;;;8.93;;
35877;SDS011;21982;49.804;24.072;2023-09-19T05:58:05;21.95;;;7.47;;
35877;SDS011;21982;49.804;24.072;2023-09-19T06:00:30;20.08;;;8.00;;
35877;SDS011;21982;49.804;24.072;2023-09-19T06:02:57;20.83;;;7.72;;
35877;SDS011;21982;49.804;24.072;2023-09-19T06:05:24;17.20;;;8.13;;
35877;SDS011;21982;49.804;24.072;2023-09-19T06:07:51;18.70;;;7.50;;
35877;SDS011;21982;49.804;24.072;2023-09-19T06:10:17;16.02;;;8.18;;
35877;SDS011;21982;49.804;24.072;2023-09-19T06:12:45;17.13;;;8.20;;
35877;SDS011;21982;49.804;24.072;2023-09-19T06:15:14;15.23;;;7.90;;
35877;SDS011;21982;49.804;24.072;2023-09-19T06:17:47;14.38;;;6.60;;
35877;SDS011;21982;49.804;24.072;2023-09-19T06:20:13;18.45;;;7.13;;
35877;SDS011;21982;49.804;24.072;2023-09-19T06:22:40;12.65;;;6.75;;
35877;SDS011;21982;49.804;24.072;2023-09-19T06:25:07;14.20;;;6.45;;
35877;SDS011;21982;49.804;24.072;2023-09-19T06:27:33;13.10;;;6.90;;
35877;SDS011;21982;49.804;24.072;2023-09-19T06:30:00;19.63;;;7.20;;
35877;SDS011;21982;49.804;24.072;2023-09-19T06:32:29;19.88;;;7.50;;
35877;SDS011;21982;49.804;24.072;2023-09-19T06:34:54;19.65;;;7.97;;
35877;SDS011;21982;49.804;24.072;2023-09-19T06:37:20;13.48;;;6.97;;
35877;SDS011;21982;49.804;24.072;2023-09-19T06:39:47;15.23;;;7.38;;
35877;SDS011;21982;49.804;24.072;2023-09-19T06:42:14;17.77;;;7.65;;
35877;SDS011;21982;49.804;24.072;2023-09-19T06:44:42;17.88;;;7.40;;
35877;SDS011;21982;49.804;24.072;2023-09-19T06:47:08;13.60;;;7.03;;
35877;SDS011;21982;49.804;24.072;2023-09-19T06:49:35;16.70;;;7.65;;
35877;SDS011;21982;49.804;24.072;2023-09-19T06:52:01;20.60;;;7.68;;
35877;SDS011;21982;49.804;24.072;2023-09-19T06:54:27;19.65;;;8.02;;
35877;SDS011;21982;49.804;24.072;2023-09-19T06:56:56;18.33;;;9.23;;
35877;SDS011;21982;49.804;24.072;2023-09-19T06:59:24;18.70;;;8.65;;
35877;SDS011;21982;49.804;24.072;2023-09-19T07:01:50;18.48;;;9.30;;
35877;SDS011;21982;49.804;24.072;2023-09-19T07:04:16;20.13;;;8.95;;
35877;SDS011;21982;49.804;24.072;2023-09-19T07:06:42;23.50;;;9.75;;
35877;SDS011;21982;49.804;24.072;2023-09-19T07:09:07;20.08;;;8.52;;
35877;SDS011;21982;49.804;24.072;2023-09-19T07:11:33;17.35;;;8.35;;
35877;SDS011;21982;49.804;24.072;2023-09-19T07:13:59;19.10;;;8.02;;
35877;SDS011;21982;49.804;24.072;2023-09-19T07:16:28;17.73;;;8.35;;
35877;SDS011;21982;49.804;24.072;2023-09-19T07:18:55;15.07;;;8.27;;
35877;SDS011;21982;49.804;24.072;2023-09-19T07:21:21;15.93;;;8.57;;
35877;SDS011;21982;49.804;24.072;2023-09-19T07:23:47;19.63;;;8.27;;
35877;SDS011;21982;49.804;24.072;2023-09-19T07:26:13;16.58;;;8.05;;
35877;SDS011;21982;49.804;24.072;2023-09-19T07:28:38;15.88;;;7.93;;
35877;SDS011;21982;49.804;24.072;2023-09-19T07:31:04;15.35;;;7.28;;
35877;SDS011;21982;49.804;24.072;2023-09-19T07:33:30;14.75;;;7.40;;
35877;SDS011;21982;49.804;24.072;2023-09-19T07:35:56;16.38;;;7.80;;
35877;SDS011;21982;49.804;24.072;2023-09-19T07:38:21;13.05;;;6.95;;
35877;SDS011;21982;49.804;24.072;2023-09-19T07:40:47;14.68;;;6.82;;
35877;SDS011;21982;49.804;24.072;2023-09-19T07:43:13;13.35;;;7.00;;
35877;SDS011;21982;49.804;24.072;2023-09-19T07:45:39;14.02;;;7.88;;
35877;SDS011;21982;49.804;24.072;2023-09-19T07:48:04;20.67;;;8.02;;
35877;SDS011;21982;49.804;24.072;2023-09-19T07:50:33;45.05;;;38.35;;
35877;SDS011;21982;49.804;24.072;2023-09-19T07:53:01;22.27;;;14.57;;
35877;SDS011;21982;49.804;24.072;2023-09-19T07:55:29;26.80;;;13.60;;
35877;SDS011;21982;49.804;24.072;2023-09-19T07:57:55;23.55;;;13.10;;
35877;SDS011;21982;49.804;24.072;2023-09-19T08:00:23;24.38;;;13.48;;
35877;SDS011;21982;49.804;24.072;2023-09-19T08:02:48;24.17;;;12.05;;
35877;SDS011;21982;49.804;24.072;2023-09-19T08:05:13;18.13;;;10.82;;
35877;SDS011;21982;49.804;24.072;2023-09-19T08:07:45;18.75;;;9.93;;
35877;SDS011;21982;49.804;24.072;2023-09-19T08:10:14;19.35;;;10.35;;
35877;SDS011;21982;49.804;24.072;2023-09-19T08:12:41;19.25;;;9.13;;
35877;SDS011;21982;49.804;24.072;2023-09-19T08:15:18;19.55;;;10.75;;
35877;SDS011;21982;49.804;24.072;2023-09-19T08:17:45;17.30;;;8.55;;
35877;SDS011;21982;49.804;24.072;2023-09-19T08:20:11;14.68;;;7.47;;
35877;SDS011;21982;49.804;24.072;2023-09-19T08:22:46;15.57;;;8.75;;
35877;SDS011;21982;49.804;24.072;2023-09-19T08:25:17;13.07;;;8.05;;
35877;SDS011;21982;49.804;24.072;2023-09-19T08:27:43;13.63;;;8.32;;
35877;SDS011;21982;49.804;24.072;2023-09-19T08:30:17;16.10;;;10.23;;
35877;SDS011;21982;49.804;24.072;2023-09-19T08:32:45;24.17;;;11.82;;
35877;SDS011;21982;49.804;24.072;2023-09-19T08:35:11;23.17;;;12.52;;
35877;SDS011;21982;49.804;24.072;2023-09-19T08:37:36;21.55;;;11.48;;
35877;SDS011;21982;49.804;24.072;2023-09-19T08:40:02;18.33;;;10.32;;
35877;SDS011;21982;49.804;24.072;2023-09-19T08:42:28;17.67;;;8.90;;
35877;SDS011;21982;49.804;24.072;2023-09-19T08:44:54;20.63;;;10.27;;
35877;SDS011;21982;49.804;24.072;2023-09-19T08:50:35;19.48;;;8.52;;
35877;SDS011;21982;49.804;24.072;2023-09-19T08:53:11;14.02;;;8.40;;
35877;SDS011;21982;49.804;24.072;2023-09-19T08:55:53;18.75;;;8.95;;
35877;SDS011;21982;49.804;24.072;2023-09-19T08:58:25;13.25;;;7.10;;
35877;SDS011;21982;49.804;24.072;2023-09-19T09:00:56;19.88;;;8.85;;
35877;SDS011;21982;49.804;24.072;2023-09-19T09:03:25;14.57;;;8.88;;
35877;SDS011;21982;49.804;24.072;2023-09-19T09:05:51;12.18;;;7.63;;
35877;SDS011;21982;49.804;24.072;2023-09-19T09:08:17;14.25;;;7.55;;
35877;SDS011;21982;49.804;24.072;2023-09-19T09:10:46;13.52;;;7.78;;
35877;SDS011;21982;49.804;24.072;2023-09-19T09:13:12;14.27;;;8.27;;
35877;SDS011;21982;49.804;24.072;2023-09-19T09:15:39;15.95;;;8.85;;
35877;SDS011;21982;49.804;24.072;2023-09-19T09:18:06;15.93;;;9.13;;
35877;SDS011;21982;49.804;24.072;2023-09-19T09:20:32;16.50;;;8.88;;
35877;SDS011;21982;49.804;24.072;2023-09-19T09:22:57;15.60;;;9.55;;
35877;SDS011;21982;49.804;24.072;2023-09-19T09:25:46;21.17;;;9.85;;
35877;SDS011;21982;49.804;24.072;2023-09-19T09:28:19;17.15;;;8.23;;
35877;SDS011;21982;49.804;24.072;2023-09-19T09:30:46;14.85;;;9.48;;
35877;SDS011;21982;49.804;24.072;2023-09-19T09:33:11;16.60;;;8.32;;
35877;SDS011;21982;49.804;24.072;2023-09-19T09:35:48;17.40;;;10.73;;
35877;SDS011;21982;49.804;24.072;2023-09-19T09:38:17;18.95;;;9.05;;
35877;SDS011;21982;49.804;24.072;2023-09-19T09:40:49;18.83;;;9.18;;
35877;SDS011;21982;49.804;24.072;2023-09-19T09:43:38;18.40;;;8.80;;
35877;SDS011;21982;49.804;24.072;2023-09-19T09:46:15;16.50;;;8.55;;
35877;SDS011;21982;49.804;24.072;2023-09-19T09:48:57;16.00;;;7.60;;
35877;SDS011;21982;49.804;24.072;2023-09-19T09:51:39;13.30;;;8.05;;
35877;SDS011;21982;49.804;24.072;2023-09-19T09:54:12;14.27;;;7.85;;
35877;SDS011;21982;49.804;24.072;2023-09-19T10:02:12;14.90;;;8.77;;
35877;SDS011;21982;49.804;24.072;2023-09-19T10:04:45;14.85;;;8.52;;
35877;SDS011;21982;49.804;24.072;2023-09-19T10:07:24;14.30;;;8.27;;
35877;SDS011;21982;49.804;24.072;2023-09-19T10:09:58;13.05;;;7.97;;
35877;SDS011;21982;49.804;24.072;2023-09-19T10:12:31;16.65;;;8.80;;
35877;SDS011;21982;49.804;24.072;2023-09-19T10:15:03;14.95;;;8.32;;
35877;SDS011;21982;49.804;24.072;2023-09-19T10:17:31;14.25;;;9.55;;
35877;SDS011;21982;49.804;24.072;2023-09-19T10:20:04;12.75;;;8.18;;
35877;SDS011;21982;49.804;24.072;2023-09-19T10:22:34;14.45;;;9.32;;
35877;SDS011;21982;49.804;24.072;2023-09-19T10:25:02;17.27;;;9.55;;
35877;SDS011;21982;49.804;24.072;2023-09-19T10:27:30;13.43;;;9.10;;
35877;SDS011;21982;49.804;24.072;2023-09-19T10:30:04;14.38;;;10.32;;
35877;SDS011;21982;49.804;24.072;2023-09-19T10:32:33;17.35;;;10.15;;
35877;SDS011;21982;49.804;24.072;2023-09-19T10:35:00;18.30;;;9.95;;
35877;SDS011;21982;49.804;24.072;2023-09-19T10:37:27;14.43;;;9.68;;
35877;SDS011;21982;49.804;24.072;2023-09-19T10:39:55;16.50;;;10.23;;
35877;SDS011;21982;49.804;24.072;2023-09-19T10:42:21;18.85;;;11.98;;
35877;SDS011;21982;49.804;24.072;2023-09-19T10:44:52;19.05;;;12.45;;
35877;SDS011;21982;49.804;24.072;2023-09-19T10:47:19;16.98;;;11.00;;
35877;SDS011;21982;49.804;24.072;2023-09-19T10:49:46;24.38;;;12.63;;
35877;SDS011;21982;49.804;24.072;2023-09-19T10:52:12;18.65;;;12.20;;
35877;SDS011;21982;49.804;24.072;2023-09-19T10:54:45;21.73;;;12.20;;
35877;SDS011;21982;49.804;24.072;2023-09-19T10:57:23;17.13;;;10.98;;
35877;SDS011;21982;49.804;24.072;2023-09-19T11:05:37;17.95;;;11.98;;
35877;SDS011;21982;49.804;24.072;2023-09-19T11:08:06;20.10;;;11.30;;
35877;SDS011;21982;49.804;24.072;2023-09-19T11:10:45;19.73;;;12.45;;
35877;SDS011;21982;49.804;24.072;2023-09-19T11:26:51;25.60;;;13.30;;
35877;SDS011;21982;49.804;24.072;2023-09-19T11:29:25;22.27;;;14.15;;
35877;SDS011;21982;49.804;24.072;2023-09-19T11:31:55;22.92;;;14.05;;
35877;SDS011;21982;49.804;24.072;2023-09-19T11:37:02;21.38;;;12.10;;
35877;SDS011;21982;49.804;24.072;2023-09-19T11:40:06;18.38;;;11.95;;
35877;SDS011;21982;49.804;24.072;2023-09-19T11:42:42;19.20;;;12.10;;
35877;SDS011;21982;49.804;24.072;2023-09-19T11:48:29;25.00;;;14.32;;
35877;SDS011;21982;49.804;24.072;2023-09-19T11:50:55;20.75;;;13.50;;
35877;SDS011;21982;49.804;24.072;2023-09-19T11:53:22;21.60;;;12.88;;
35877;SDS011;21982;49.804;24.072;2023-09-19T11:55:49;20.08;;;12.90;;
35877;SDS011;21982;49.804;24.072;2023-09-19T11:58:15;22.63;;;12.38;;
35877;SDS011;21982;49.804;24.072;2023-09-19T12:00:41;20.27;;;13.18;;
35877;SDS011;21982;49.804;24.072;2023-09-19T12:03:10;22.77;;;13.07;;
35877;SDS011;21982;49.804;24.072;2023-09-19T12:05:36;20.15;;;12.80;;
35877;SDS011;21982;49.804;24.072;2023-09-19T12:08:02;21.67;;;12.40;;
35877;SDS011;21982;49.804;24.072;2023-09-19T12:10:32;21.13;;;12.80;;
35877;SDS011;21982;49.804;24.072;2023-09-19T12:12:58;18.55;;;12.23;;
35877;SDS011;21982;49.804;24.072;2023-09-19T12:15:25;19.13;;;12.15;;
35877;SDS011;21982;49.804;24.072;2023-09-19T12:20:24;20.05;;;11.15;;
35877;SDS011;21982;49.804;24.072;2023-09-19T12:22:50;20.00;;;11.77;;
35877;SDS011;21982;49.804;24.072;2023-09-19T12:25:15;19.17;;;10.88;;
35877;SDS011;21982;49.804;24.072;2023-09-19T12:27:47;21.65;;;12.00;;
35877;SDS011;21982;49.804;24.072;2023-09-19T12:30:15;22.20;;;10.98;;
35877;SDS011;21982;49.804;24.072;2023-09-19T12:32:43;18.30;;;11.57;;
35877;SDS011;21982;49.804;24.072;2023-09-19T12:35:09;18.55;;;11.80;;
35877;SDS011;21982;49.804;24.072;2023-09-19T12:37:43;20.40;;;12.00;;
35877;SDS011;21982;49.804;24.072;2023-09-19T12:40:17;18.90;;;10.77;;
35877;SDS011;21982;49.804;24.072;2023-09-19T12:42:47;17.80;;;11.48;;
35877;SDS011;21982;49.804;24.072;2023-09-19T12:45:14;18.48;;;11.05;;
35877;SDS011;21982;49.804;24.072;2023-09-19T12:53:34;19.67;;;9.75;;
35877;SDS011;21982;49.804;24.072;2023-09-19T12:56:05;16.42;;;9.48;;
35877;SDS011;21982;49.804;24.072;2023-09-19T12:58:33;17.17;;;10.90;;
35877;SDS011;21982;49.804;24.072;2023-09-19T13:01:23;17.73;;;10.48;;
35877;SDS011;21982;49.804;24.072;2023-09-19T13:04:11;19.67;;;10.65;;
35877;SDS011;21982;49.804;24.072;2023-09-19T13:06:51;17.40;;;10.25;;
35877;SDS011;21982;49.804;24.072;2023-09-19T13:09:21;16.55;;;10.23;;
35877;SDS011;21982;49.804;24.072;2023-09-19T13:11:49;17.15;;;9.82;;
35877;SDS011;21982;49.804;24.072;2023-09-19T13:14:20;17.80;;;11.05;;
35877;SDS011;21982;49.804;24.072;2023-09-19T13:17:00;18.05;;;11.45;;
35877;SDS011;21982;49.804;24.072;2023-09-19T13:19:42;20.00;;;12.90;;
35877;SDS011;21982;49.804;24.072;2023-09-19T13:25:01;19.98;;;11.05;;
35877;SDS011;21982;49.804;24.072;2023-09-19T13:27:28;23.15;;;14.88;;
35877;SDS011;21982;49.804;24.072;2023-09-19T13:29:53;18.48;;;11.73;;
35877;SDS011;21982;49.804;24.072;2023-09-19T13:32:19;24.48;;;14.52;;
35877;SDS011;21982;49.804;24.072;2023-09-19T13:34:44;23.73;;;13.95;;
35877;SDS011;21982;49.804;24.072;2023-09-19T13:37:09;20.73;;;13.48;;
35877;SDS011;21982;49.804;24.072;2023-09-19T13:39:35;23.27;;;13.32;;
35877;SDS011;21982;49.804;24.072;2023-09-19T13:42:01;20.80;;;12.32;;
35877;SDS011;21982;49.804;24.072;2023-09-19T13:44:28;18.42;;;11.80;;
35877;SDS011;21982;49.804;24.072;2023-09-19T13:46:54;18.85;;;12.50;;
35877;SDS011;21982;49.804;24.072;2023-09-19T13:49:21;22.02;;;13.93;;
35877;SDS011;21982;49.804;24.072;2023-09-19T13:51:48;20.33;;;11.35;;
35877;SDS011;21982;49.804;24.072;2023-09-19T13:54:14;19.00;;;12.52;;
35877;SDS011;21982;49.804;24.072;2023-09-19T13:56:40;17.35;;;10.60;;
35877;SDS011;21982;49.804;24.072;2023-09-19T13:59:05;18.85;;;11.77;;
35877;SDS011;21982;49.804;24.072;2023-09-19T14:01:31;19.65;;;11.50;;
35877;SDS011;21982;49.804;24.072;2023-09-19T14:03:57;21.10;;;13.50;;
35877;SDS011;21982;49.804;24.072;2023-09-19T14:06:23;20.83;;;12.50;;
35877;SDS011;21982;49.804;24.072;2023-09-19T14:08:48;17.13;;;12.63;;
35877;SDS011;21982;49.804;24.072;2023-09-19T14:11:15;19.33;;;11.02;;
35877;SDS011;21982;49.804;24.072;2023-09-19T14:13:40;15.95;;;10.40;;
35877;SDS011;21982;49.804;24.072;2023-09-19T14:16:09;18.25;;;12.40;;
35877;SDS011;21982;49.804;24.072;2023-09-19T14:18:34;20.58;;;11.40;;
35877;SDS011;21982;49.804;24.072;2023-09-19T14:21:06;20.10;;;11.60;;
35877;SDS011;21982;49.804;24.072;2023-09-19T14:23:36;18.13;;;11.63;;
35877;SDS011;21982;49.804;24.072;2023-09-19T14:26:02;16.33;;;10.80;;
35877;SDS011;21982;49.804;24.072;2023-09-19T14:28:27;19.27;;;12.65;;
35877;SDS011;21982;49.804;24.072;2023-09-19T14:30:54;19.98;;;11.30;;
35877;SDS011;21982;49.804;24.072;2023-09-19T14:33:20;17.10;;;12.57;;
35877;SDS011;21982;49.804;24.072;2023-09-19T14:35:45;17.92;;;11.35;;
35877;SDS011;21982;49.804;24.072;2023-09-19T14:38:11;19.92;;;12.20;;
35877;SDS011;21982;49.804;24.072;2023-09-19T14:40:36;16.35;;;11.68;;
35877;SDS011;21982;49.804;24.072;2023-09-19T14:43:02;20.13;;;12.90;;
35877;SDS011;21982;49.804;24.072;2023-09-19T14:45:28;15.50;;;11.25;;
35877;SDS011;21982;49.804;24.072;2023-09-19T14:47:55;19.20;;;12.93;;
35877;SDS011;21982;49.804;24.072;2023-09-19T14:50:21;15.65;;;11.02;;
35877;SDS011;21982;49.804;24.072;2023-09-19T14:52:47;17.92;;;12.30;;
35877;SDS011;21982;49.804;24.072;2023-09-19T14:55:14;17.83;;;10.60;;
35877;SDS011;21982;49.804;24.072;2023-09-19T14:57:40;17.95;;;12.43;;
35877;SDS011;21982;49.804;24.072;2023-09-19T15:00:07;14.60;;;11.18;;
35877;SDS011;21982;49.804;24.072;2023-09-19T15:02:37;17.95;;;12.35;;
35877;SDS011;21982;49.804;24.072;2023-09-19T15:05:05;16.92;;;12.00;;
35877;SDS011;21982;49.804;24.072;2023-09-19T15:07:33;17.00;;;12.90;;
35877;SDS011;21982;49.804;24.072;2023-09-19T15:10:01;17.05;;;12.48;;
35877;SDS011;21982;49.804;24.072;2023-09-19T15:12:27;19.13;;;13.55;;
35877;SDS011;21982;49.804;24.072;2023-09-19T15:14:54;18.73;;;12.80;;
35877;SDS011;21982;49.804;24.072;2023-09-19T15:17:19;16.83;;;11.90;;
35877;SDS011;21982;49.804;24.072;2023-09-19T15:19:45;18.35;;;13.00;;
35877;SDS011;21982;49.804;24.072;2023-09-19T15:22:11;17.45;;;10.55;;
35877;SDS011;21982;49.804;24.072;2023-09-19T15:24:37;29.30;;;13.43;;
35877;SDS011;21982;49.804;24.072;2023-09-19T15:27:03;18.85;;;12.50;;
35877;SDS011;21982;49.804;24.072;2023-09-19T15:29:29;18.80;;;12.18;;